Time;durP1;ratioP1;P1;durP2;ratioP2;P2;SDS_P1;SDS_P2;PMS_P1;PMS_P2;Temp;Humidity;BMP_temperature;BMP_pressure;BME280_temperature;BME280_humidity;BME280_pressure;Samples;Min_cycle;Max_cycle;Signal;HPM_P1;HPM_P2
2023/06/09 11:56:35;;;;;;;9.93;6.22;;;29.80;63.80;;;;;;5020138;28;20036;-39
2023/06/09 11:59:01;;;;;;;7.82;6.45;;;29.90;63.50;;;;;;4995793;28;20034;-40
2023/06/09 12:01:31;;;;;;;11.02;6.22;;;29.90;63.30;;;;;;5008044;28;20026;-40
2023/06/09 12:03:57;;;;;;;9.13;6.68;;;30.60;62.00;;;;;;4957866;28;20106;-40
2023/06/09 12:06:23;;;;;;;9.50;6.35;;;31.30;63.10;;;;;;4924573;29;20044;-40
2023/06/09 12:08:48;;;;;;;10.35;6.18;;;31.80;60.20;;;;;;4886531;29;20392;-41
2023/06/09 12:11:16;;;;;;;6.30;5.70;;;32.20;59.10;;;;;;4841432;29;20029;-41
2023/06/09 12:13:47;;;;;;;12.57;6.22;;;32.30;57.90;;;;;;4764643;29;20631;-41
2023/06/09 12:16:13;;;;;;;9.45;5.30;;;32.50;58.60;;;;;;4628808;30;20062;-41
2023/06/09 12:22:53;;;;;;;11.35;5.78;;;32.80;58.30;;;;;;5107127;27;20784;-41
2023/06/09 12:25:27;;;;;;;7.93;5.75;;;33.00;57.40;;;;;;5089312;28;20031;-41
2023/06/09 12:27:54;;;;;;;10.30;5.50;;;33.10;55.50;;;;;;5085382;28;20047;-41
2023/06/09 12:30:32;;;;;;;10.35;5.13;;;33.20;55.80;;;;;;5086339;28;20112;-40
2023/06/09 12:33:04;;;;;;;8.43;6.13;;;33.10;54.40;;;;;;5086951;28;20051;-39
2023/06/09 12:35:37;;;;;;;7.75;5.35;;;32.80;55.00;;;;;;5086038;28;20509;-40
2023/06/09 12:38:19;;;;;;;6.95;4.72;;;33.00;56.30;;;;;;5086948;28;20466;-40
2023/06/09 12:40:51;;;;;;;6.55;5.47;;;33.00;55.80;;;;;;5086964;28;20665;-40
2023/06/09 12:43:18;;;;;;;10.40;5.95;;;33.10;55.20;;;;;;5085437;28;20381;-43
2023/06/09 12:45:45;;;;;;;8.93;5.22;;;33.20;55.30;;;;;;5083435;28;20032;-40
2023/06/09 12:48:11;;;;;;;8.80;4.95;;;33.20;55.50;;;;;;5092979;28;20082;-40
2023/06/09 12:50:38;;;;;;;7.60;5.30;;;33.10;54.90;;;;;;5088266;28;20015;-40
2023/06/09 12:53:11;;;;;;;8.18;5.20;;;33.20;53.60;;;;;;5088863;28;20019;-40
2023/06/09 12:55:41;;;;;;;7.15;5.50;;;33.20;53.60;;;;;;5087374;28;20552;-40
2023/06/09 12:58:13;;;;;;;8.48;5.95;;;33.20;54.10;;;;;;5089567;28;20094;-40
2023/06/09 13:00:39;;;;;;;8.32;5.43;;;33.00;53.70;;;;;;5092811;28;20024;-40
2023/06/09 13:03:10;;;;;;;8.15;5.00;;;32.80;54.30;;;;;;5085571;28;20031;-40
2023/06/09 13:05:36;;;;;;;7.97;5.57;;;32.80;54.20;;;;;;5093029;28;20067;-41
2023/06/09 13:08:04;;;;;;;5.97;5.10;;;32.90;54.90;;;;;;5084856;28;20024;-40
2023/06/09 13:10:31;;;;;;;8.93;6.10;;;32.90;54.50;;;;;;5085999;28;20362;-40
2023/06/09 13:13:01;;;;;;;9.55;5.75;;;32.80;54.10;;;;;;5083730;28;20496;-40
2023/06/09 13:15:26;;;;;;;6.88;5.57;;;32.80;54.10;;;;;;5081988;28;20024;-40
2023/06/09 13:17:53;;;;;;;7.05;5.88;;;32.80;53.20;;;;;;5085671;28;20333;-40
2023/06/09 13:20:22;;;;;;;6.45;5.78;;;32.70;53.50;;;;;;5091590;28;20031;-41
2023/06/09 13:22:49;;;;;;;7.07;5.37;;;32.50;53.40;;;;;;5085005;28;20035;-41
2023/06/09 13:25:16;;;;;;;6.82;5.38;;;32.10;54.00;;;;;;5092520;28;20345;-39
2023/06/09 13:27:44;;;;;;;6.88;5.30;;;31.60;53.80;;;;;;5084627;28;20500;-40
2023/06/09 13:30:13;;;;;;;8.68;5.78;;;31.10;54.90;;;;;;5081518;28;20102;-40
2023/06/09 13:32:39;;;;;;;11.70;5.95;;;30.80;55.00;;;;;;5079055;28;20436;-39
2023/06/09 13:35:06;;;;;;;8.32;5.38;;;30.40;55.10;;;;;;5070370;28;20037;-39
2023/06/09 13:37:31;;;;;;;7.32;5.30;;;30.50;54.40;;;;;;5070547;28;20025;-40
2023/06/09 13:39:57;;;;;;;6.93;5.25;;;30.70;54.60;;;;;;5070618;28;20397;-43
2023/06/09 13:42:23;;;;;;;6.72;4.90;;;30.90;54.10;;;;;;5071212;28;20111;-40
2023/06/09 13:44:48;;;;;;;8.23;5.57;;;30.80;55.00;;;;;;5080658;28;20024;-40
2023/06/09 13:47:14;;;;;;;7.82;5.60;;;30.50;54.10;;;;;;5078670;28;20384;-40
2023/06/09 13:49:40;;;;;;;8.38;5.60;;;30.40;54.50;;;;;;5069309;28;20047;-40
2023/06/09 13:52:06;;;;;;;7.45;5.57;;;30.50;54.60;;;;;;5070877;28;20469;-40
2023/06/09 13:54:31;;;;;;;6.78;5.28;;;30.80;54.30;;;;;;5079909;28;20086;-39
2023/06/09 13:56:57;;;;;;;7.32;5.95;;;30.90;55.00;;;;;;5075011;28;20052;-40
2023/06/09 13:59:23;;;;;;;7.97;5.65;;;31.20;55.10;;;;;;5077251;28;20033;-40
2023/06/09 14:01:49;;;;;;;6.35;5.13;;;31.20;53.30;;;;;;5069677;28;20068;-39
2023/06/09 14:04:14;;;;;;;6.57;5.25;;;31.30;53.00;;;;;;5078228;28;20020;-40
2023/06/09 14:06:41;;;;;;;5.57;4.60;;;31.40;51.50;;;;;;5069613;28;20024;-40
2023/06/09 14:09:07;;;;;;;5.57;4.38;;;31.60;51.60;;;;;;5077885;28;20039;-39
2023/06/09 14:11:43;;;;;;;6.30;5.18;;;31.60;51.10;;;;;;5071458;28;20020;-40
2023/06/09 14:14:09;;;;;;;7.18;4.88;;;31.10;51.60;;;;;;5078349;28;20452;-40
2023/06/09 14:16:34;;;;;;;8.32;5.20;;;30.80;52.50;;;;;;5072077;28;20374;-40
2023/06/09 14:19:00;;;;;;;9.25;4.82;;;30.90;51.90;;;;;;5075990;28;20028;-40
2023/06/09 14:21:26;;;;;;;6.35;4.15;;;31.00;50.80;;;;;;5068844;28;20508;-40
2023/06/09 14:23:52;;;;;;;5.75;4.88;;;31.10;50.50;;;;;;5069693;28;20107;-40
2023/06/09 14:26:18;;;;;;;5.10;4.38;;;31.20;50.40;;;;;;5067652;28;20393;-39
2023/06/09 14:28:44;;;;;;;6.60;5.25;;;31.30;50.10;;;;;;5068866;28;20428;-40
2023/06/09 14:31:09;;;;;;;6.72;3.95;;;31.40;49.40;;;;;;5077068;28;20040;-40
2023/06/09 14:33:35;;;;;;;5.50;4.35;;;31.50;47.60;;;;;;5077729;28;20024;-41
2023/06/09 14:36:02;;;;;;;6.80;4.85;;;31.50;48.60;;;;;;5070297;28;20085;-40
2023/06/09 14:38:28;;;;;;;8.10;4.88;;;31.50;47.50;;;;;;5070255;28;20025;-40
2023/06/09 14:40:54;;;;;;;9.85;5.22;;;31.60;46.70;;;;;;5069908;28;20020;-40
2023/06/09 14:43:20;;;;;;;9.43;4.00;;;31.60;47.70;;;;;;5077370;28;20016;-40
2023/06/09 14:45:46;;;;;;;6.55;4.32;;;31.60;47.00;;;;;;5075190;28;20031;-40
2023/06/09 14:48:12;;;;;;;7.72;4.93;;;31.50;46.10;;;;;;5068955;28;20343;-41
2023/06/09 14:50:44;;;;;;;7.95;4.43;;;31.40;45.80;;;;;;5078151;28;20312;-39
2023/06/09 14:53:11;;;;;;;4.60;3.85;;;31.40;46.70;;;;;;5070718;28;20106;-40
2023/06/09 14:55:39;;;;;;;7.13;4.50;;;31.50;45.90;;;;;;5070514;28;20051;-40
2023/06/09 14:58:08;;;;;;;6.25;4.03;;;31.50;45.50;;;;;;5074536;28;20031;-40
2023/06/09 15:00:35;;;;;;;4.47;3.83;;;31.50;45.60;;;;;;5069049;28;20021;-40
2023/06/09 15:03:02;;;;;;;4.30;3.90;;;31.50;45.30;;;;;;5075768;28;20020;-40
2023/06/09 15:05:31;;;;;;;5.88;3.67;;;31.40;44.50;;;;;;5079171;28;20021;-40
2023/06/09 15:07:58;;;;;;;4.18;3.72;;;31.40;43.90;;;;;;5069509;28;20045;-40
2023/06/09 15:10:29;;;;;;;5.35;4.18;;;31.40;42.80;;;;;;5069505;28;20509;-40
2023/06/09 15:12:56;;;;;;;5.95;3.85;;;31.30;43.10;;;;;;5069657;28;20024;-40
2023/06/09 15:15:23;;;;;;;7.85;3.97;;;31.30;43.00;;;;;;5068178;28;20040;-39
2023/06/09 15:17:49;;;;;;;3.95;3.55;;;31.30;43.20;;;;;;5084570;28;20312;-40
2023/06/09 15:20:16;;;;;;;4.78;3.60;;;31.30;43.20;;;;;;5077478;28;20029;-40
2023/06/09 15:22:42;;;;;;;5.15;3.88;;;31.20;43.40;;;;;;5068998;28;20032;-41
2023/06/09 15:25:10;;;;;;;4.32;3.58;;;31.30;42.70;;;;;;5068608;28;20074;-40
2023/06/09 15:27:36;;;;;;;4.40;3.75;;;31.30;42.40;;;;;;5075854;28;20463;-41
2023/06/09 15:30:06;;;;;;;4.25;3.17;;;31.30;43.20;;;;;;5069145;28;20090;-40
2023/06/09 15:32:32;;;;;;;4.88;4.20;;;31.20;43.20;;;;;;5077075;28;20032;-40
2023/06/09 15:35:00;;;;;;;9.27;3.67;;;31.20;42.70;;;;;;5068471;28;20056;-40
2023/06/09 15:37:26;;;;;;;4.15;3.72;;;31.20;42.90;;;;;;5077122;28;20039;-41
2023/06/09 15:39:52;;;;;;;6.00;4.03;;;31.10;42.80;;;;;;5067538;28;20020;-40
2023/06/09 15:42:20;;;;;;;4.80;4.05;;;31.00;42.40;;;;;;5067405;28;20159;-41
2023/06/09 15:44:51;;;;;;;4.85;4.15;;;31.00;43.90;;;;;;5067355;28;20616;-41
2023/06/09 15:47:20;;;;;;;4.78;3.70;;;31.00;43.80;;;;;;5077071;28;20508;-40
2023/06/09 15:49:46;;;;;;;8.90;4.70;;;31.00;43.80;;;;;;5076148;28;20042;-41
2023/06/09 15:52:11;;;;;;;9.30;4.15;;;31.10;42.90;;;;;;5068327;28;20486;-40
2023/06/09 15:54:37;;;;;;;5.97;4.18;;;31.10;43.20;;;;;;5068149;28;20025;-40
2023/06/09 15:57:05;;;;;;;6.25;4.13;;;30.80;43.30;;;;;;5068737;28;20436;-40
2023/06/09 15:59:31;;;;;;;3.60;3.30;;;30.90;42.70;;;;;;5066973;28;20398;-41
2023/06/09 16:01:56;;;;;;;5.63;4.22;;;30.70;43.20;;;;;;5067893;28;20039;-40
2023/06/09 16:04:23;;;;;;;5.47;4.43;;;30.70;43.50;;;;;;5100602;28;20068;-40
2023/06/09 16:06:48;;;;;;;8.27;4.15;;;30.70;43.10;;;;;;5068235;28;20016;-40
2023/06/09 16:09:14;;;;;;;5.47;4.13;;;30.70;42.60;;;;;;5068465;28;20025;-40
2023/06/09 16:11:40;;;;;;;7.40;4.28;;;30.50;41.50;;;;;;5068318;28;20066;-40
2023/06/09 16:14:06;;;;;;;4.32;3.92;;;30.40;41.60;;;;;;5067186;28;20477;-40
2023/06/09 16:16:32;;;;;;;4.10;3.70;;;30.40;41.80;;;;;;5076735;28;20119;-40
2023/06/09 16:18:58;;;;;;;5.18;4.00;;;30.20;41.80;;;;;;5073247;28;20031;-40
2023/06/09 16:21:24;;;;;;;5.82;3.95;;;30.00;42.30;;;;;;5066725;28;20091;-40
2023/06/09 16:23:50;;;;;;;5.50;3.60;;;29.90;42.50;;;;;;5069192;28;20036;-40
2023/06/09 16:26:16;;;;;;;5.82;4.07;;;29.80;42.60;;;;;;5068008;28;20420;-40
2023/06/09 16:28:41;;;;;;;5.57;4.10;;;29.70;43.00;;;;;;5071618;28;20027;-40
2023/06/09 16:31:07;;;;;;;6.85;4.15;;;29.60;43.50;;;;;;5073123;28;20031;-40
2023/06/09 16:33:35;;;;;;;6.68;4.07;;;29.50;43.00;;;;;;5066645;28;20127;-40
2023/06/09 16:36:03;;;;;;;4.78;3.60;;;29.60;42.60;;;;;;5099873;28;20024;-40
2023/06/09 16:38:29;;;;;;;6.38;3.70;;;29.60;42.30;;;;;;5069396;28;20119;-40
2023/06/09 16:40:55;;;;;;;7.72;4.43;;;29.40;42.80;;;;;;5074973;28;20426;-41
2023/06/09 16:43:22;;;;;;;6.03;3.80;;;29.40;42.70;;;;;;5066616;28;20020;-41
2023/06/09 16:45:47;;;;;;;5.70;4.63;;;29.30;43.10;;;;;;5066443;28;20162;-40
2023/06/09 16:48:13;;;;;;;7.22;4.43;;;29.30;43.00;;;;;;5067958;28;20099;-40
2023/06/09 16:50:38;;;;;;;5.25;4.18;;;29.30;42.40;;;;;;5076268;28;20025;-40
2023/06/09 16:53:04;;;;;;;6.50;3.42;;;29.20;43.40;;;;;;5082970;28;20161;-40
2023/06/09 16:55:30;;;;;;;5.63;3.90;;;29.10;43.40;;;;;;5077263;28;20016;-40
2023/06/09 16:57:56;;;;;;;6.43;3.95;;;29.10;42.40;;;;;;5073946;28;20067;-41
2023/06/09 17:00:22;;;;;;;7.05;4.35;;;29.00;43.50;;;;;;5066060;28;20024;-40
2023/06/09 17:02:48;;;;;;;6.78;4.53;;;29.00;45.10;;;;;;5066229;28;20035;-41
2023/06/09 17:05:14;;;;;;;4.85;3.85;;;28.80;45.30;;;;;;5073140;28;20568;-41
2023/06/09 17:07:40;;;;;;;4.65;3.97;;;28.80;44.20;;;;;;5088619;28;20151;-40
2023/06/09 17:10:05;;;;;;;4.40;3.92;;;28.70;44.00;;;;;;5085662;28;20070;-41
2023/06/09 17:12:33;;;;;;;6.13;4.20;;;28.60;44.00;;;;;;5070924;28;20021;-41
2023/06/09 17:15:02;;;;;;;6.57;3.80;;;28.50;43.00;;;;;;5089872;28;20162;-44
2023/06/09 17:17:27;;;;;;;5.47;4.03;;;28.40;43.80;;;;;;5071862;28;20378;-44
2023/06/09 17:19:53;;;;;;;6.93;4.13;;;28.30;42.50;;;;;;5069991;28;20034;-43
2023/06/09 17:22:20;;;;;;;6.30;3.83;;;28.30;42.40;;;;;;5068392;28;20020;-45
2023/06/09 17:24:47;;;;;;;5.70;4.30;;;28.20;43.40;;;;;;5069463;28;20029;-44
2023/06/09 17:27:13;;;;;;;7.93;4.15;;;28.10;46.00;;;;;;5070671;28;20517;-46
2023/06/09 17:29:39;;;;;;;9.93;4.38;;;28.10;45.10;;;;;;5081369;28;20022;-42
2023/06/09 17:32:05;;;;;;;6.50;4.07;;;28.00;45.40;;;;;;5083512;28;20415;-40
2023/06/09 17:34:31;;;;;;;6.70;4.38;;;28.00;44.40;;;;;;5091073;28;20087;-43
2023/06/09 17:37:02;;;;;;;6.43;4.47;;;27.90;45.40;;;;;;5086119;28;20035;-42
2023/06/09 17:39:30;;;;;;;6.03;4.28;;;27.80;45.20;;;;;;5080137;28;20024;-41
2023/06/09 17:41:56;;;;;;;5.85;4.07;;;27.70;45.90;;;;;;5076590;28;20047;-41
2023/06/09 17:44:22;;;;;;;6.10;4.25;;;27.60;46.00;;;;;;5073654;28;20028;-41
2023/06/09 17:46:48;;;;;;;7.13;4.35;;;27.50;46.10;;;;;;5070554;28;20024;-41
2023/06/09 17:49:15;;;;;;;7.55;4.22;;;27.50;46.10;;;;;;5070693;28;20032;-41
2023/06/09 17:51:41;;;;;;;5.43;4.22;;;27.40;46.00;;;;;;5081343;28;20032;-41
2023/06/09 17:54:07;;;;;;;6.68;4.75;;;27.30;47.00;;;;;;5091186;28;20362;-40
2023/06/09 17:56:34;;;;;;;5.65;4.50;;;27.20;47.90;;;;;;5089963;28;20035;-41
2023/06/09 17:59:00;;;;;;;9.52;4.32;;;27.10;47.80;;;;;;5076248;28;20028;-41
2023/06/09 18:01:26;;;;;;;6.68;4.82;;;27.10;49.10;;;;;;5070028;28;20020;-41
2023/06/09 18:03:51;;;;;;;6.43;4.63;;;27.00;50.30;;;;;;5074257;28;20093;-40
2023/06/09 18:06:17;;;;;;;7.50;4.82;;;26.80;50.70;;;;;;5086832;28;20027;-40
2023/06/09 18:08:43;;;;;;;6.05;4.68;;;26.80;50.50;;;;;;5064017;28;20396;-41
2023/06/09 18:11:09;;;;;;;9.07;4.75;;;26.70;51.10;;;;;;5082516;28;20060;-40
2023/06/09 18:13:35;;;;;;;7.57;4.93;;;26.60;51.60;;;;;;5079761;28;20456;-40
2023/06/09 18:16:00;;;;;;;8.02;4.70;;;26.60;51.70;;;;;;5068781;28;20065;-41
2023/06/09 18:18:26;;;;;;;5.93;4.70;;;26.50;52.50;;;;;;5069726;28;20016;-41
2023/06/09 18:20:52;;;;;;;13.27;6.05;;;26.40;53.00;;;;;;5070110;28;20618;-41
2023/06/09 18:23:20;;;;;;;7.57;5.57;;;26.30;52.60;;;;;;5070108;28;20013;-41
2023/06/09 18:25:46;;;;;;;7.57;5.13;;;26.20;52.60;;;;;;5075220;28;20078;-41
2023/06/09 18:28:12;;;;;;;9.43;4.95;;;26.10;53.10;;;;;;5084730;28;20473;-40
2023/06/09 18:30:38;;;;;;;6.85;5.20;;;26.10;53.10;;;;;;5078390;28;20056;-40
2023/06/09 18:33:04;;;;;;;9.73;5.22;;;26.00;54.00;;;;;;5075179;28;20062;-40
2023/06/09 18:35:29;;;;;;;6.93;4.80;;;25.90;54.30;;;;;;5070967;28;20116;-41
2023/06/09 18:37:55;;;;;;;10.63;4.75;;;25.80;54.70;;;;;;5069874;28;20033;-40
2023/06/09 18:40:21;;;;;;;6.22;4.78;;;25.70;54.30;;;;;;5069787;28;20056;-41
2023/06/09 18:42:46;;;;;;;7.50;5.03;;;25.60;54.80;;;;;;5069908;28;20422;-41
2023/06/09 18:45:13;;;;;;;9.50;4.90;;;25.50;54.30;;;;;;5075674;28;20098;-40
2023/06/09 18:47:39;;;;;;;6.80;5.63;;;25.40;55.80;;;;;;5083640;28;20017;-41
2023/06/09 18:50:06;;;;;;;10.10;6.10;;;25.30;54.80;;;;;;5089971;28;20354;-40
2023/06/09 18:52:32;;;;;;;10.70;6.47;;;25.10;55.70;;;;;;5078886;28;20482;-40
2023/06/09 18:54:58;;;;;;;10.52;6.18;;;25.10;55.90;;;;;;5088324;28;20032;-41
2023/06/09 18:57:25;;;;;;;8.02;5.38;;;24.90;55.80;;;;;;5071952;28;20081;-40
2023/06/09 18:59:51;;;;;;;7.07;5.25;;;24.90;56.20;;;;;;5082134;28;20500;-41
2023/06/09 19:02:16;;;;;;;6.72;5.13;;;24.70;56.20;;;;;;5079791;28;20419;-41
2023/06/09 19:04:42;;;;;;;8.85;4.93;;;24.70;56.60;;;;;;5068117;28;20013;-40
2023/06/09 19:07:09;;;;;;;8.05;5.85;;;24.70;56.80;;;;;;5084749;28;20069;-41
2023/06/09 19:09:35;;;;;;;5.75;4.78;;;24.50;56.80;;;;;;5078736;28;20065;-41
2023/06/09 19:12:01;;;;;;;7.43;4.60;;;24.40;57.60;;;;;;5082611;28;20107;-39
2023/06/09 19:14:27;;;;;;;9.45;6.15;;;24.30;58.00;;;;;;5077881;28;20478;-39
2023/06/09 19:16:53;;;;;;;9.32;6.40;;;24.30;58.30;;;;;;5079963;28;20025;-39
2023/06/09 19:19:18;;;;;;;8.23;5.15;;;24.20;58.80;;;;;;5088662;28;20367;-40
2023/06/09 19:21:45;;;;;;;7.18;5.40;;;24.10;59.10;;;;;;5071708;28;20036;-39
2023/06/09 19:24:11;;;;;;;8.75;4.93;;;24.00;60.20;;;;;;5089354;28;20024;-39
2023/06/09 19:26:37;;;;;;;7.20;5.35;;;23.90;61.10;;;;;;5071579;28;20032;-40
2023/06/09 19:29:03;;;;;;;7.00;4.13;;;23.90;61.20;;;;;;5089056;28;20023;-40
2023/06/09 19:31:28;;;;;;;8.65;5.25;;;23.80;62.00;;;;;;5069689;28;20027;-40
2023/06/09 19:33:56;;;;;;;7.10;4.97;;;23.60;62.40;;;;;;5081389;28;20491;-39
2023/06/09 19:36:22;;;;;;;7.05;5.03;;;23.50;63.40;;;;;;5079125;28;20021;-39
2023/06/09 19:38:47;;;;;;;10.65;5.40;;;23.40;63.90;;;;;;5087382;28;20035;-39
2023/06/09 19:41:13;;;;;;;10.57;5.47;;;23.40;64.20;;;;;;5072892;28;20528;-40
2023/06/09 19:43:38;;;;;;;8.10;5.75;;;23.20;64.70;;;;;;5067797;28;20020;-40
2023/06/09 19:46:06;;;;;;;7.68;5.25;;;23.20;65.30;;;;;;5081746;28;20019;-40
2023/06/09 19:48:32;;;;;;;8.23;4.88;;;23.00;65.80;;;;;;5071133;28;20020;-41
2023/06/09 19:51:01;;;;;;;7.65;4.75;;;23.00;66.60;;;;;;5088998;28;20027;-40
2023/06/09 19:53:26;;;;;;;8.57;4.70;;;22.90;66.90;;;;;;5070882;28;20066;-40
2023/06/09 19:55:52;;;;;;;11.13;5.43;;;22.80;67.10;;;;;;5076940;28;20513;-40
2023/06/09 19:58:18;;;;;;;8.45;4.57;;;22.70;68.00;;;;;;5088577;28;20020;-39
2023/06/09 20:00:44;;;;;;;9.55;5.10;;;22.60;67.60;;;;;;5068971;28;20020;-40
2023/06/09 20:03:10;;;;;;;5.80;4.63;;;22.50;68.20;;;;;;5075330;28;20025;-40
2023/06/09 20:05:35;;;;;;;8.18;5.00;;;22.40;68.70;;;;;;5065879;28;20021;-40
2023/06/09 20:08:01;;;;;;;9.48;4.68;;;22.30;68.50;;;;;;5065707;28;20066;-40
2023/06/09 20:10:28;;;;;;;8.68;4.78;;;22.30;68.50;;;;;;5068271;28;20028;-40
2023/06/09 20:12:54;;;;;;;8.38;4.60;;;22.20;69.30;;;;;;5073716;28;20025;-40
2023/06/09 20:15:20;;;;;;;9.55;4.80;;;22.00;69.70;;;;;;5065183;28;20024;-39
2023/06/09 20:17:46;;;;;;;5.93;4.40;;;22.00;69.30;;;;;;5073195;28;20365;-39
2023/06/09 20:20:14;;;;;;;8.90;4.65;;;21.90;69.20;;;;;;5074395;28;20028;-40
2023/06/09 20:22:40;;;;;;;6.57;4.32;;;21.80;69.10;;;;;;5067439;28;20028;-41
2023/06/09 20:25:07;;;;;;;5.43;4.00;;;21.70;70.10;;;;;;5066591;28;20020;-40
2023/06/09 20:27:32;;;;;;;11.32;4.55;;;21.60;70.20;;;;;;5074911;28;20133;-40
2023/06/09 20:29:59;;;;;;;6.68;4.93;;;21.50;70.20;;;;;;5076609;28;20020;-39
2023/06/09 20:32:24;;;;;;;6.82;4.85;;;21.50;70.90;;;;;;5076317;28;20043;-39
2023/06/09 20:34:51;;;;;;;8.77;5.07;;;21.40;70.60;;;;;;5067228;28;20025;-40
2023/06/09 20:37:16;;;;;;;9.93;5.30;;;21.40;70.80;;;;;;5073471;28;20484;-41
2023/06/09 20:39:42;;;;;;;9.77;5.35;;;21.20;71.00;;;;;;5065426;28;20024;-39
2023/06/09 20:42:08;;;;;;;7.00;4.85;;;21.20;71.50;;;;;;5071063;28;20024;-41
2023/06/09 20:44:33;;;;;;;14.05;6.93;;;21.00;71.90;;;;;;5087734;28;20103;-39
2023/06/09 20:46:59;;;;;;;15.07;7.88;;;21.00;71.60;;;;;;5078990;28;20025;-41
2023/06/09 20:49:28;;;;;;;12.35;6.32;;;20.90;71.60;;;;;;5069021;28;20543;-40
2023/06/09 20:51:53;;;;;;;11.23;5.82;;;20.90;72.10;;;;;;5071398;28;20029;-40
2023/06/09 20:54:19;;;;;;;9.43;5.90;;;20.80;71.60;;;;;;5080490;28;20115;-40
2023/06/09 20:56:46;;;;;;;11.48;5.90;;;20.70;71.50;;;;;;5077283;28;20443;-40
2023/06/09 20:59:11;;;;;;;10.65;5.60;;;20.60;71.40;;;;;;5071772;28;20383;-40
2023/06/09 21:01:37;;;;;;;9.50;5.53;;;20.60;70.50;;;;;;5071014;28;20028;-40
2023/06/09 21:04:03;;;;;;;11.23;5.30;;;20.60;69.90;;;;;;5073354;28;20051;-45
2023/06/09 21:06:34;;;;;;;7.55;4.72;;;20.50;69.30;;;;;;5112297;27;20035;-40
2023/06/09 21:09:00;;;;;;;7.00;5.45;;;20.40;70.10;;;;;;5076475;28;20076;-40
2023/06/09 21:11:26;;;;;;;8.52;5.20;;;20.40;68.40;;;;;;5073999;28;20028;-39
2023/06/09 21:13:52;;;;;;;9.00;4.30;;;20.30;68.40;;;;;;5087122;28;20035;-39
2023/06/09 21:16:18;;;;;;;8.07;4.43;;;20.30;68.00;;;;;;5071257;28;20029;-39
2023/06/09 21:18:43;;;;;;;14.00;4.18;;;20.20;67.80;;;;;;5071217;28;20033;-39
2023/06/09 21:21:09;;;;;;;8.43;4.50;;;20.10;68.10;;;;;;5071067;28;20052;-39
2023/06/09 21:23:36;;;;;;;6.47;3.90;;;20.10;68.60;;;;;;5071312;28;20024;-40
2023/06/09 21:26:01;;;;;;;8.07;3.60;;;20.00;68.60;;;;;;5076572;28;20027;-41
2023/06/09 21:28:27;;;;;;;6.65;4.30;;;20.00;69.30;;;;;;5089586;28;20028;-40
2023/06/09 21:30:52;;;;;;;9.25;4.50;;;19.90;68.70;;;;;;5080101;28;20056;-40
2023/06/09 21:33:18;;;;;;;10.85;4.68;;;19.80;69.10;;;;;;5071137;28;20474;-40
2023/06/09 21:35:44;;;;;;;11.60;4.80;;;19.70;69.40;;;;;;5068828;28;20056;-39
2023/06/09 21:38:09;;;;;;;7.00;4.03;;;19.60;69.40;;;;;;5079367;28;20027;-39
2023/06/09 21:40:35;;;;;;;7.25;3.92;;;19.50;69.40;;;;;;5089844;28;20036;-40
2023/06/09 21:43:00;;;;;;;6.32;3.63;;;19.50;69.70;;;;;;5076667;28;20478;-40
2023/06/09 21:45:27;;;;;;;9.10;4.50;;;19.40;70.20;;;;;;5070282;28;20032;-40
2023/06/09 21:47:53;;;;;;;10.05;4.32;;;19.40;70.80;;;;;;5075585;28;20089;-40
2023/06/09 21:50:19;;;;;;;6.38;3.75;;;19.30;70.90;;;;;;5089863;28;20024;-40
2023/06/09 21:52:44;;;;;;;6.78;4.63;;;19.20;71.00;;;;;;5062611;28;20036;-40
2023/06/09 21:55:10;;;;;;;9.32;4.28;;;19.20;71.70;;;;;;5069571;28;20020;-41
2023/06/09 21:57:35;;;;;;;8.25;4.05;;;19.10;71.60;;;;;;5077263;28;20047;-43
2023/06/09 22:00:03;;;;;;;9.27;4.28;;;19.10;71.90;;;;;;5070821;28;20075;-40
2023/06/09 22:02:29;;;;;;;8.02;3.95;;;19.00;72.10;;;;;;5069952;28;20039;-38
2023/06/09 22:04:54;;;;;;;13.23;4.25;;;19.00;72.20;;;;;;5077741;28;20024;-41
2023/06/09 22:07:21;;;;;;;6.32;3.75;;;18.90;72.20;;;;;;5078331;28;20027;-40
2023/06/09 22:09:47;;;;;;;4.82;3.60;;;18.80;72.50;;;;;;5082039;28;20031;-39
2023/06/09 22:12:21;;;;;;;6.22;3.28;;;18.80;73.10;;;;;;5083122;28;20029;-39
2023/06/09 22:14:47;;;;;;;5.85;3.55;;;18.70;73.70;;;;;;5072556;28;20112;-39
2023/06/09 22:17:12;;;;;;;5.55;3.60;;;18.70;73.90;;;;;;5075106;28;20052;-39
2023/06/09 22:19:38;;;;;;;5.50;3.53;;;18.60;74.20;;;;;;5070117;28;20055;-39
2023/06/09 22:22:05;;;;;;;5.03;3.75;;;18.60;74.40;;;;;;5070410;28;20036;-39
2023/06/09 22:24:30;;;;;;;8.43;3.70;;;18.50;74.60;;;;;;5068108;28;20112;-39
2023/06/09 22:26:57;;;;;;;8.77;4.35;;;18.50;74.70;;;;;;5082378;28;20111;-40
2023/06/09 22:29:22;;;;;;;8.00;4.30;;;18.30;75.10;;;;;;5080966;28;20021;-39
2023/06/09 22:31:48;;;;;;;6.50;4.07;;;18.30;75.80;;;;;;5090355;28;20077;-39
2023/06/09 22:34:13;;;;;;;5.68;3.90;;;18.20;75.80;;;;;;5090318;28;20028;-39
2023/06/09 22:36:39;;;;;;;6.97;4.10;;;18.10;76.40;;;;;;5072957;28;20027;-39
2023/06/09 22:39:06;;;;;;;7.95;4.15;;;18.00;77.50;;;;;;5090250;28;20081;-39
2023/06/09 22:41:32;;;;;;;7.15;4.35;;;18.00;77.50;;;;;;5069948;28;20082;-39
2023/06/09 22:44:01;;;;;;;9.80;3.90;;;18.00;77.90;;;;;;5075244;28;20024;-41
2023/06/09 22:46:27;;;;;;;8.15;3.97;;;17.90;78.70;;;;;;5072064;28;20024;-40
2023/06/09 22:48:53;;;;;;;7.82;4.25;;;17.90;79.10;;;;;;5089825;28;20095;-40
2023/06/09 22:51:18;;;;;;;7.18;4.50;;;17.80;79.30;;;;;;5071969;28;20025;-39
2023/06/09 22:53:44;;;;;;;6.80;4.07;;;17.80;80.00;;;;;;5065223;28;20069;-41
2023/06/09 22:56:12;;;;;;;8.75;4.07;;;17.60;80.10;;;;;;5081426;28;20539;-41
2023/06/09 22:58:39;;;;;;;7.07;4.15;;;17.60;80.50;;;;;;5069821;28;20028;-41
2023/06/09 23:01:04;;;;;;;7.38;3.97;;;17.50;80.80;;;;;;5084042;28;20032;-41
2023/06/09 23:03:33;;;;;;;7.55;4.35;;;17.50;81.30;;;;;;5079705;28;20073;-42
2023/06/09 23:06:02;;;;;;;8.85;4.13;;;17.40;82.00;;;;;;5068455;28;20107;-41
2023/06/09 23:08:28;;;;;;;7.15;3.90;;;17.30;82.60;;;;;;5075807;28;20481;-40
2023/06/09 23:10:54;;;;;;;9.02;4.00;;;17.30;83.10;;;;;;5082633;28;20035;-41
2023/06/09 23:13:20;;;;;;;10.60;4.72;;;17.20;83.70;;;;;;5080021;28;20029;-41
2023/06/09 23:15:46;;;;;;;10.50;3.72;;;17.20;84.30;;;;;;5079522;28;20016;-40
2023/06/09 23:18:13;;;;;;;7.75;4.30;;;17.10;84.20;;;;;;5089805;28;20031;-41
2023/06/09 23:20:42;;;;;;;5.47;3.60;;;17.00;84.90;;;;;;5086644;28;21558;-41
2023/06/09 23:23:14;;;;;;;14.18;4.80;;;17.00;85.30;;;;;;5083477;28;20016;-41
2023/06/09 23:25:41;;;;;;;9.15;4.38;;;16.90;86.20;;;;;;5088751;28;20238;-39
2023/06/09 23:28:08;;;;;;;7.50;4.28;;;16.90;87.80;;;;;;5084516;28;20039;-40
2023/06/09 23:30:36;;;;;;;11.40;4.68;;;16.80;88.40;;;;;;5078916;28;20025;-40
2023/06/09 23:33:05;;;;;;;8.35;5.25;;;16.80;89.40;;;;;;5069124;28;20078;-39
2023/06/09 23:35:35;;;;;;;13.48;4.45;;;16.70;90.00;;;;;;5068447;28;20048;-40
2023/06/09 23:38:00;;;;;;;8.63;5.07;;;16.70;90.40;;;;;;5069003;28;20047;-39
2023/06/09 23:40:26;;;;;;;11.25;4.97;;;16.60;90.80;;;;;;5069056;28;20481;-39
2023/06/09 23:42:51;;;;;;;10.68;4.50;;;16.60;91.30;;;;;;5068910;28;20036;-39
2023/06/09 23:45:17;;;;;;;12.57;4.68;;;16.50;91.90;;;;;;5068552;28;20424;-39
2023/06/09 23:47:42;;;;;;;12.38;5.07;;;16.50;92.40;;;;;;5068833;28;20036;-39
2023/06/09 23:50:09;;;;;;;10.77;4.90;;;16.50;93.00;;;;;;5068904;28;20067;-39
2023/06/09 23:52:35;;;;;;;11.65;4.53;;;16.40;93.60;;;;;;5087282;28;20073;-39
2023/06/09 23:55:05;;;;;;;9.57;5.05;;;16.30;94.30;;;;;;5082544;28;20021;-39
2023/06/09 23:57:31;;;;;;;12.90;5.53;;;16.30;95.00;;;;;;5074394;28;20021;-39
